Disclaimer

Please do not use the information listed here in-flight or in-navigation, as they are not provided to us by the airports but are provided by volunteers, so they might be outdated.

Search


Regions


Airport information page

No radio frequency information is available.

Airport informations:
Latitude: 45° 13' 00.80" N
Longitude: 014° 34' 12.96" E
Elevation: 278 feet - 85 meters
Operating hours: Remarks
Operating agency: Civil government, landing fees and diplomatic clearance may be required
Timezone: UTC+1(+2DT) - Last Sunday in March to last Sunday in October
Fuel: Jet A, without icing inhibitor.

100/130 MIL Spec, low lead, aviation gasoline (BLUE)

Runway information:
14/32 - 8164 x 148 feet< - >2488 x 45 meters

Recent METARs:
LDRI 171930Z 07011KT 360V120 9999 FEW050 07/M04 Q1024
LDRI 172000Z VRB07KT 9999 FEW050 07/M04 Q1024
LDRI 172030Z VRB03KT 9999 FEW050 07/M04 Q1025

Airport on the map: